Cow Island, Louisiana
Current Conditions -  °F | °C
As of 7:55 PM on Sunday 21 Dec 2014 (Local Time) from KIYA Reporting Station
Overcast Overcast  
Wind Chill: 51°   Ceiling: 10000
Heat Index: 51°   Visibility: 7mi
Dew Point: 50°   Wind: 3mph
Humidity: 97%   Direction: 330°NNW
Pressure: 29.97"   Gusts: NA
Location:  29.8955°N, 92.208°W
Report Text: KIYA 220155Z AUTO 33003KT 7SM OVC100 11/10 A2997 RMK AO2 T01050100 TSNO
Loading
Personal Weather Stations






























Interactive Weather Map New forecast layout! Learn more

10-Day Weather Forecast

Advertisements
Track Severe Weather on mobile